createdAt,value
2019-02-19T00:01:26.994Z,95655.58
2019-02-19T00:03:53.643Z,95654.45
2019-02-19T00:06:20.331Z,95647.23
2019-02-19T00:08:46.983Z,95653.94
2019-02-19T00:11:13.643Z,95646.34
2019-02-19T00:13:40.308Z,95648.91
2019-02-19T00:16:06.971Z,95646.59
2019-02-19T00:18:33.635Z,95647.13
2019-02-19T00:21:00.304Z,95643.46
2019-02-19T00:23:26.971Z,95639.82
2019-02-19T00:25:53.652Z,95641.33
2019-02-19T00:28:20.311Z,95642.09
2019-02-19T00:30:46.975Z,95637.41
2019-02-19T00:33:13.635Z,95642.33
2019-02-19T00:35:40.284Z,95637.54
2019-02-19T00:38:06.989Z,95633.37
2019-02-19T00:40:33.729Z,95634.23
2019-02-19T00:43:00.415Z,95631.57
2019-02-19T00:45:27.071Z,95639.41
2019-02-19T00:47:53.779Z,95638.83
2019-02-19T00:50:20.434Z,95637.03
2019-02-19T00:52:47.094Z,95636.15
2019-02-19T00:55:13.870Z,95632.38
2019-02-19T00:57:40.541Z,95628.91
2019-02-19T01:00:07.250Z,95630.84
2019-02-19T01:02:33.902Z,95626.66
2019-02-19T01:05:00.605Z,95625.30
2019-02-19T01:07:27.263Z,95622.38
2019-02-19T01:09:54.049Z,95626.96
2019-02-19T01:12:20.717Z,95623.75
2019-02-19T01:14:47.380Z,95619.37
2019-02-19T01:17:14.085Z,95613.28
2019-02-19T01:19:40.727Z,95617.13
2019-02-19T01:22:07.491Z,95604.09
2019-02-19T01:24:34.191Z,95611.66
2019-02-19T01:27:00.876Z,95604.94
2019-02-19T01:29:27.535Z,95602.05
2019-02-19T01:31:54.193Z,95599.26
2019-02-19T01:34:20.862Z,95606.22
2019-02-19T01:36:47.522Z,95607.99
2019-02-19T01:39:14.194Z,95604.88
2019-02-19T01:41:40.834Z,95596.66
2019-02-19T01:44:07.509Z,95597.14
2019-02-19T01:46:34.151Z,95587.30
2019-02-19T01:49:00.861Z,95590.94
2019-02-19T01:51:27.525Z,95583.10
2019-02-19T01:53:54.201Z,95583.73
2019-02-19T01:56:20.959Z,95582.75
2019-02-19T01:58:47.629Z,95580.24
2019-02-19T02:01:17.020Z,95572.00
2019-02-19T02:03:43.689Z,95572.63
2019-02-19T02:06:10.552Z,95571.74
2019-02-19T02:08:37.199Z,95576.17
2019-02-19T02:11:03.892Z,95576.58
2019-02-19T02:13:30.551Z,95576.14
2019-02-19T02:15:57.207Z,95574.30
2019-02-19T02:18:23.875Z,95573.39
2019-02-19T02:20:50.554Z,95572.02
2019-02-19T02:23:17.210Z,95580.77
2019-02-19T02:25:43.858Z,95575.81
2019-02-19T02:28:10.578Z,95583.91
2019-02-19T02:30:37.243Z,95575.53
2019-02-19T02:33:03.903Z,95576.88
2019-02-19T02:35:30.594Z,95568.44
2019-02-19T02:37:57.265Z,95575.74
2019-02-19T02:40:23.911Z,95571.13
2019-02-19T02:42:50.562Z,95571.58
2019-02-19T02:45:17.367Z,95578.13
2019-02-19T02:47:44.024Z,95573.13
2019-02-19T02:50:10.673Z,95576.72
2019-02-19T02:52:37.346Z,95581.23
2019-02-19T02:55:04.056Z,95572.66
2019-02-19T02:57:30.697Z,95577.72
2019-02-19T02:59:57.497Z,95577.30
2019-02-19T03:02:24.189Z,95577.05
2019-02-19T03:04:50.800Z,95577.78
2019-02-19T03:07:17.462Z,95580.31
2019-02-19T03:09:44.151Z,95570.81
2019-02-19T03:12:10.810Z,95572.83
2019-02-19T03:14:37.450Z,95580.31
2019-02-19T03:17:04.121Z,95565.14
2019-02-19T03:19:30.814Z,95569.27
2019-02-19T03:21:57.478Z,95574.85
2019-02-19T03:24:24.128Z,95583.20
2019-02-19T03:26:50.797Z,95580.03
2019-02-19T03:29:17.535Z,95572.28
2019-02-19T03:31:44.217Z,95581.13
2019-02-19T03:34:10.914Z,95574.22
2019-02-19T03:36:37.565Z,95578.83
2019-02-19T03:39:04.214Z,95582.39
2019-02-19T03:41:30.871Z,95576.32
2019-02-19T03:43:57.631Z,95572.66
2019-02-19T03:46:24.333Z,95569.88
2019-02-19T03:48:50.992Z,95573.54
2019-02-19T03:51:17.682Z,95571.47
2019-02-19T03:53:44.378Z,95573.89
2019-02-19T03:56:10.984Z,95572.48
2019-02-19T03:58:37.638Z,95571.62
2019-02-19T04:01:04.292Z,95569.44
2019-02-19T04:03:30.964Z,95573.11
2019-02-19T04:05:57.608Z,95574.09
2019-02-19T04:08:24.298Z,95575.08
2019-02-19T04:10:50.949Z,95579.55
2019-02-19T04:13:17.624Z,95579.96
2019-02-19T04:15:44.338Z,95577.34
2019-02-19T04:18:10.997Z,95572.27
2019-02-19T04:20:37.675Z,95580.36
2019-02-19T04:23:04.353Z,95579.97
2019-02-19T04:25:31.011Z,95576.30
2019-02-19T04:27:57.727Z,95576.64
2019-02-19T04:30:24.391Z,95584.57
2019-02-19T04:32:51.063Z,95586.69
2019-02-19T04:35:17.776Z,95590.70
2019-02-19T04:37:44.483Z,95586.09
2019-02-19T04:40:11.187Z,95586.81
2019-02-19T04:42:37.847Z,95585.35
2019-02-19T04:45:04.556Z,95584.45
2019-02-19T04:47:31.215Z,95586.17
2019-02-19T04:49:57.926Z,95583.89
2019-02-19T04:52:24.573Z,95589.11
2019-02-19T04:54:51.306Z,95590.25
2019-02-19T04:57:17.954Z,95592.61
2019-02-19T04:59:44.605Z,95587.03
2019-02-19T05:02:11.328Z,95586.91
2019-02-19T05:04:38.033Z,95587.77
2019-02-19T05:07:04.679Z,95591.56
2019-02-19T05:09:31.389Z,95586.77
2019-02-19T05:11:58.061Z,95597.70
2019-02-19T05:14:24.766Z,95584.62
2019-02-19T05:16:51.448Z,95594.92
2019-02-19T05:19:18.107Z,95592.48
2019-02-19T05:21:44.769Z,95592.09
2019-02-19T05:24:11.467Z,95597.66
2019-02-19T05:26:38.159Z,95596.87
2019-02-19T05:29:05.057Z,95593.34
2019-02-19T05:31:31.808Z,95599.09
2019-02-19T05:33:58.473Z,95599.20
2019-02-19T05:36:25.140Z,95606.74
2019-02-19T05:38:51.877Z,95613.06
2019-02-19T05:41:18.541Z,95612.67
2019-02-19T05:43:45.206Z,95621.46
2019-02-19T05:46:11.894Z,95624.24
2019-02-19T05:48:38.559Z,95626.17
2019-02-19T05:51:05.219Z,95630.14
2019-02-19T05:53:31.868Z,95637.84
2019-02-19T05:55:58.551Z,95632.03
2019-02-19T05:58:25.213Z,95636.18
2019-02-19T06:00:51.932Z,95636.03
2019-02-19T06:03:18.600Z,95630.86
2019-02-19T06:05:45.253Z,95638.45
2019-02-19T06:08:11.924Z,95638.02
2019-02-19T06:10:38.701Z,95638.89
2019-02-19T06:13:05.368Z,95642.11
2019-02-19T06:15:32.025Z,95636.70
2019-02-19T06:17:58.696Z,95640.08
2019-02-19T06:20:25.395Z,95641.16
2019-02-19T06:22:52.043Z,95645.23
2019-02-19T06:25:18.740Z,95642.84
2019-02-19T06:27:45.402Z,95644.34
2019-02-19T06:30:12.082Z,95644.30
2019-02-19T06:32:38.783Z,95635.76
2019-02-19T06:35:05.458Z,95635.03
2019-02-19T06:37:32.136Z,95633.02
2019-02-19T06:39:58.816Z,95636.16
2019-02-19T06:42:25.634Z,95634.50
2019-02-19T06:44:52.296Z,95631.67
2019-02-19T06:47:18.958Z,95630.73
2019-02-19T06:49:45.639Z,95637.47
2019-02-19T06:52:12.386Z,95641.42
2019-02-19T06:54:39.050Z,95640.92
2019-02-19T06:57:05.718Z,95634.69
2019-02-19T06:59:32.377Z,95643.14
2019-02-19T07:01:59.046Z,95640.57
2019-02-19T07:04:25.726Z,95642.05
2019-02-19T07:06:52.420Z,95638.67
2019-02-19T07:09:19.090Z,95639.81
2019-02-19T07:11:45.758Z,95643.32
2019-02-19T07:14:12.400Z,95644.13
2019-02-19T07:16:39.062Z,95646.69
2019-02-19T07:19:05.735Z,95645.56
2019-02-19T07:21:32.404Z,95650.05
2019-02-19T07:24:04.380Z,95650.13
2019-02-19T07:26:26.758Z,95645.86
2019-02-19T07:28:53.416Z,95641.14
2019-02-19T07:31:20.082Z,95647.77
2019-02-19T07:33:46.749Z,95644.47
2019-02-19T07:36:13.409Z,95644.48
2019-02-19T07:38:40.071Z,95642.91
2019-02-19T07:41:06.725Z,95643.88
2019-02-19T07:43:33.395Z,95637.39
2019-02-19T07:46:07.930Z,95646.38
2019-02-19T07:48:35.289Z,95644.61
2019-02-19T07:51:02.494Z,95644.48
2019-02-19T07:53:31.630Z,95644.56
2019-02-19T07:55:55.912Z,95646.17
2019-02-19T07:58:22.585Z,95643.00
2019-02-19T08:00:49.290Z,95638.35
2019-02-19T08:03:15.957Z,95636.32
2019-02-19T08:05:42.693Z,95636.53
2019-02-19T08:08:09.505Z,95633.45
2019-02-19T08:10:36.229Z,95631.88
2019-02-19T08:13:02.895Z,95632.00
2019-02-19T08:15:29.707Z,95630.96
2019-02-19T08:17:56.305Z,95624.07
2019-02-19T08:20:23.027Z,95622.34
2019-02-19T08:22:49.727Z,95621.73
2019-02-19T08:25:16.442Z,95627.61
2019-02-19T08:27:43.099Z,95622.28
2019-02-19T08:30:11.152Z,95631.63
2019-02-19T08:32:36.459Z,95626.00
2019-02-19T08:35:03.136Z,95624.41
2019-02-19T08:37:29.798Z,95624.57
2019-02-19T08:39:56.487Z,95624.27
2019-02-19T08:42:23.172Z,95627.56
2019-02-19T08:44:49.836Z,95628.71
2019-02-19T08:47:16.633Z,95628.58
2019-02-19T08:49:43.288Z,95624.98
2019-02-19T08:52:09.939Z,95621.56
2019-02-19T08:54:36.619Z,95623.77
2019-02-19T08:57:03.341Z,95622.22
2019-02-19T08:59:29.999Z,95616.09
2019-02-19T09:01:56.781Z,95622.35
2019-02-19T09:04:23.435Z,95622.06
2019-02-19T09:06:50.114Z,95617.16
2019-02-19T09:09:16.838Z,95611.53
2019-02-19T09:11:43.496Z,95613.95
2019-02-19T09:14:10.202Z,95615.64
2019-02-19T09:16:36.897Z,95609.28
2019-02-19T09:19:03.563Z,95610.37
2019-02-19T09:21:30.235Z,95601.48
2019-02-19T09:23:58.462Z,95605.02
2019-02-19T09:26:23.748Z,95612.66
2019-02-19T09:28:50.478Z,95603.58
2019-02-19T09:31:17.185Z,95607.02
2019-02-19T09:33:43.871Z,95600.92
2019-02-19T09:36:10.550Z,95600.53
2019-02-19T09:38:37.221Z,95600.61
2019-02-19T09:41:03.906Z,95598.05
2019-02-19T09:43:35.451Z,95596.84
2019-02-19T09:45:58.966Z,95595.17
2019-02-19T09:48:23.928Z,95589.13
2019-02-19T09:50:50.613Z,95590.03
2019-02-19T09:53:17.278Z,95579.48
2019-02-19T09:55:43.965Z,95579.64
2019-02-19T09:58:10.619Z,95573.84
2019-02-19T10:00:37.271Z,95575.08
2019-02-19T10:03:03.981Z,95562.86
2019-02-19T10:05:30.730Z,95566.34
2019-02-19T10:07:57.401Z,95557.98
2019-02-19T10:10:24.075Z,95552.59
2019-02-19T10:12:50.824Z,95551.66
2019-02-19T10:15:17.482Z,95549.56
2019-02-19T10:17:44.194Z,95533.78
2019-02-19T10:20:10.924Z,95538.41
2019-02-19T10:22:37.586Z,95531.04
2019-02-19T10:25:04.245Z,95532.72
2019-02-19T10:27:30.961Z,95532.02
2019-02-19T10:29:57.622Z,95524.22
2019-02-19T10:32:24.327Z,95520.86
2019-02-19T10:34:51.034Z,95516.16
2019-02-19T10:37:17.698Z,95519.11
2019-02-19T10:39:44.355Z,95508.90
2019-02-19T10:42:11.024Z,95504.26
2019-02-19T10:44:37.718Z,95495.25
2019-02-19T10:47:04.369Z,95490.78
2019-02-19T10:49:31.051Z,95492.70
2019-02-19T10:51:57.737Z,95485.96
2019-02-19T10:54:24.501Z,95479.17
2019-02-19T10:56:51.183Z,95478.34
2019-02-19T10:59:17.908Z,95469.64
2019-02-19T11:01:44.593Z,95463.18
2019-02-19T11:04:11.267Z,95460.91
2019-02-19T11:06:39.051Z,95460.19
2019-02-19T11:09:04.635Z,95453.41
2019-02-19T11:11:31.331Z,95445.74
2019-02-19T11:13:58.024Z,95451.52
2019-02-19T11:16:24.686Z,95441.55
2019-02-19T11:18:51.359Z,95442.37
2019-02-19T11:21:19.890Z,95440.16
2019-02-19T11:23:44.735Z,95437.56
2019-02-19T11:26:11.419Z,95432.36
2019-02-19T11:28:38.092Z,95427.59
2019-02-19T11:31:04.758Z,95425.50
2019-02-19T11:33:31.433Z,95420.55
2019-02-19T11:35:58.115Z,95419.86
2019-02-19T11:38:24.764Z,95416.48
2019-02-19T11:40:51.505Z,95405.69
2019-02-19T11:43:18.158Z,95404.66
2019-02-19T11:45:44.826Z,95401.88
2019-02-19T11:48:11.502Z,95396.76
2019-02-19T11:50:38.178Z,95395.76
2019-02-19T11:53:04.876Z,95386.80
2019-02-19T11:55:31.534Z,95379.97
2019-02-19T11:57:58.210Z,95386.63
2019-02-19T12:00:24.876Z,95379.84
2019-02-19T12:02:51.538Z,95377.66
2019-02-19T12:05:18.234Z,95372.70
2019-02-19T12:07:44.899Z,95369.69
2019-02-19T12:10:12.154Z,95365.55
2019-02-19T12:12:38.240Z,95363.18
2019-02-19T12:15:04.959Z,95363.80
2019-02-19T12:17:31.714Z,95362.73
2019-02-19T12:19:58.409Z,95353.13
2019-02-19T12:22:27.669Z,95350.60
2019-02-19T12:24:54.377Z,95345.88
2019-02-19T12:27:21.067Z,95346.79
2019-02-19T12:29:47.742Z,95346.73
2019-02-19T12:32:14.415Z,95342.21
2019-02-19T12:34:41.116Z,95336.15
2019-02-19T12:37:07.776Z,95334.27
2019-02-19T12:39:34.455Z,95330.38
2019-02-19T12:42:01.124Z,95327.29
2019-02-19T12:44:27.804Z,95321.70
2019-02-19T12:46:54.512Z,95322.13
2019-02-19T12:49:21.147Z,95320.25
2019-02-19T12:51:47.820Z,95317.05
2019-02-19T12:54:14.495Z,95315.03
2019-02-19T12:56:41.209Z,95312.31
2019-02-19T12:59:07.901Z,95306.55
2019-02-19T13:01:34.570Z,95308.88
2019-02-19T13:04:01.224Z,95306.85
2019-02-19T13:06:27.885Z,95302.01
2019-02-19T13:08:54.570Z,95294.65
2019-02-19T13:11:21.277Z,95298.46
2019-02-19T13:13:48.003Z,95289.94
2019-02-19T13:16:14.673Z,95292.78
2019-02-19T13:18:41.446Z,95291.59
2019-02-19T13:21:08.341Z,95290.78
2019-02-19T13:23:35.041Z,95294.97
2019-02-19T13:26:01.689Z,95288.58
2019-02-19T13:28:28.340Z,95291.59
2019-02-19T13:30:55.061Z,95288.31
2019-02-19T13:33:21.825Z,95285.81
2019-02-19T13:35:48.530Z,95285.84
2019-02-19T13:38:15.204Z,95281.34
2019-02-19T13:40:41.948Z,95287.53
2019-02-19T13:43:08.598Z,95285.81
2019-02-19T13:45:35.311Z,95284.77
2019-02-19T13:48:06.025Z,95277.28
2019-02-19T13:50:28.619Z,95278.76
2019-02-19T13:52:55.313Z,95268.59
2019-02-19T13:55:21.995Z,95278.16
2019-02-19T13:57:48.662Z,95279.30
2019-02-19T14:00:15.385Z,95273.93
2019-02-19T14:02:42.070Z,95263.00
2019-02-19T14:05:08.786Z,95272.59
2019-02-19T14:07:35.465Z,95272.53
2019-02-19T14:10:02.120Z,95274.55
2019-02-19T14:12:28.819Z,95264.64
2019-02-19T14:14:56.620Z,95265.42
2019-02-19T14:17:23.297Z,95266.73
2019-02-19T14:19:50.037Z,95267.37
2019-02-19T14:22:16.723Z,95270.36
2019-02-19T14:24:44.655Z,95264.88
2019-02-19T14:27:11.356Z,95258.04
2019-02-19T14:29:38.056Z,95261.73
2019-02-19T14:32:06.049Z,95258.27
2019-02-19T14:34:32.398Z,95259.27
2019-02-19T14:36:59.078Z,95249.25
2019-02-19T14:39:25.725Z,95249.99
2019-02-19T14:41:52.450Z,95254.13
2019-02-19T14:44:19.120Z,95252.29
2019-02-19T14:46:45.850Z,95249.64
2019-02-19T14:49:12.525Z,95248.22
2019-02-19T14:51:39.205Z,95250.02
2019-02-19T14:54:05.929Z,95248.33
2019-02-19T14:56:32.616Z,95248.82
2019-02-19T14:58:59.332Z,95239.67
2019-02-19T15:01:26.069Z,95246.26
2019-02-19T15:03:52.730Z,95245.92
2019-02-19T15:06:19.440Z,95248.88
2019-02-19T15:08:46.100Z,95245.67
2019-02-19T15:11:12.863Z,95245.06
2019-02-19T15:13:39.592Z,95242.80
2019-02-19T15:16:06.371Z,95246.23
2019-02-19T15:18:33.008Z,95238.23
2019-02-19T15:20:59.711Z,95251.23
2019-02-19T15:23:26.376Z,95244.45
2019-02-19T15:25:53.071Z,95241.94
2019-02-19T15:28:19.724Z,95246.91
2019-02-19T15:30:46.460Z,95245.37
2019-02-19T15:33:13.116Z,95246.78
2019-02-19T15:35:39.839Z,95244.28
2019-02-19T15:38:06.592Z,95237.99
2019-02-19T15:40:33.431Z,95242.91
2019-02-19T15:43:00.109Z,95241.84
2019-02-19T15:45:26.787Z,95239.55
2019-02-19T15:47:53.455Z,95241.85
2019-02-19T15:50:20.118Z,95240.17
2019-02-19T15:52:49.451Z,95244.37
2019-02-19T15:55:16.108Z,95250.26
2019-02-19T15:57:42.840Z,95249.80
2019-02-19T16:00:09.499Z,95245.95
2019-02-19T16:02:36.155Z,95249.98
2019-02-19T16:05:02.847Z,95257.89
2019-02-19T16:07:29.506Z,95260.21
2019-02-19T16:09:56.176Z,95254.88
2019-02-19T16:12:22.834Z,95256.09
2019-02-19T16:14:49.498Z,95254.81
2019-02-19T16:17:16.160Z,95258.30
2019-02-19T16:19:42.832Z,95260.14
2019-02-19T16:22:09.519Z,95263.88
2019-02-19T16:24:36.214Z,95267.63
2019-02-19T16:27:02.912Z,95265.28
2019-02-19T16:29:29.587Z,95262.95
2019-02-19T16:31:56.292Z,95260.86
2019-02-19T16:34:22.955Z,95259.58
2019-02-19T16:36:49.610Z,95266.23
2019-02-19T16:39:16.275Z,95265.92
2019-02-19T16:41:42.944Z,95269.47
2019-02-19T16:44:09.598Z,95269.55
2019-02-19T16:46:36.328Z,95269.55
2019-02-19T16:49:03.006Z,95268.39
2019-02-19T16:51:29.638Z,95271.75
2019-02-19T16:53:56.310Z,95271.95
2019-02-19T16:56:23.052Z,95271.95
2019-02-19T16:58:49.700Z,95270.74
2019-02-19T17:01:16.471Z,95259.45
2019-02-19T17:03:43.193Z,95263.41
2019-02-19T17:06:09.904Z,95271.46
2019-02-19T17:08:36.615Z,95270.75
2019-02-19T17:11:03.297Z,95273.80
2019-02-19T17:13:29.962Z,95267.13
2019-02-19T17:15:56.620Z,95264.85
2019-02-19T17:18:23.346Z,95268.27
2019-02-19T17:20:50.068Z,95265.55
2019-02-19T17:23:16.729Z,95268.96
2019-02-19T17:25:43.395Z,95267.64
2019-02-19T17:28:10.065Z,95268.91
2019-02-19T17:30:36.731Z,95272.89
2019-02-19T17:33:03.392Z,95273.16
2019-02-19T17:35:30.051Z,95271.38
2019-02-19T17:37:56.702Z,95274.37
2019-02-19T17:40:23.379Z,95279.67
2019-02-19T17:42:51.634Z,95282.33
2019-02-19T17:45:16.762Z,95274.33
2019-02-19T17:47:43.423Z,95279.24
2019-02-19T17:50:10.102Z,95282.89
2019-02-19T17:52:36.872Z,95283.33
2019-02-19T17:55:03.522Z,95286.27
2019-02-19T17:57:30.172Z,95286.64
2019-02-19T17:59:56.852Z,95286.34
2019-02-19T18:02:23.500Z,95285.67
2019-02-19T18:04:50.158Z,95284.06
2019-02-19T18:07:16.896Z,95289.59
2019-02-19T18:09:43.554Z,95283.43
2019-02-19T18:12:10.202Z,95284.80
2019-02-19T18:14:36.880Z,95280.91
2019-02-19T18:17:03.732Z,95285.84
2019-02-19T18:19:30.309Z,95284.50
2019-02-19T18:21:57.001Z,95282.20
2019-02-19T18:24:23.697Z,95284.27
2019-02-19T18:26:50.479Z,95284.64
2019-02-19T18:29:17.137Z,95280.75
2019-02-19T18:31:43.814Z,95282.72
2019-02-19T18:34:10.530Z,95284.92
2019-02-19T18:36:37.188Z,95281.52
2019-02-19T18:39:03.892Z,95284.69
2019-02-19T18:41:30.650Z,95293.59
2019-02-19T18:43:57.314Z,95291.19
2019-02-19T18:46:24.025Z,95283.86
2019-02-19T18:48:50.645Z,95288.55
2019-02-19T18:51:17.372Z,95288.71
2019-02-19T18:53:44.034Z,95289.94
2019-02-19T18:56:10.680Z,95287.51
2019-02-19T18:58:37.350Z,95286.94
2019-02-19T19:01:04.018Z,95293.72
2019-02-19T19:03:30.787Z,95288.02
2019-02-19T19:05:57.478Z,95288.57
2019-02-19T19:08:24.143Z,95293.01
2019-02-19T19:10:50.793Z,95296.97
2019-02-19T19:13:17.511Z,95307.27
2019-02-19T19:15:44.229Z,95299.91
2019-02-19T19:18:10.899Z,95306.11
2019-02-19T19:20:37.563Z,95311.07
2019-02-19T19:23:04.229Z,95302.90
2019-02-19T19:25:30.877Z,95309.02
2019-02-19T19:27:57.605Z,95306.30
2019-02-19T19:30:24.257Z,95317.16
2019-02-19T19:32:50.925Z,95320.95
2019-02-19T19:35:17.591Z,95311.24
2019-02-19T19:37:44.332Z,95323.24
2019-02-19T19:40:10.983Z,95326.88
2019-02-19T19:42:37.692Z,95318.83
2019-02-19T19:45:04.373Z,95322.42
2019-02-19T19:47:31.031Z,95323.42
2019-02-19T19:49:57.752Z,95323.61
2019-02-19T19:52:24.405Z,95319.08
2019-02-19T19:54:51.070Z,95324.66
2019-02-19T19:57:17.712Z,95318.25
2019-02-19T19:59:44.420Z,95323.19
2019-02-19T20:02:11.073Z,95331.64
2019-02-19T20:04:37.739Z,95327.37
2019-02-19T20:07:04.409Z,95324.72
2019-02-19T20:09:31.141Z,95330.59
2019-02-19T20:11:57.797Z,95329.20
2019-02-19T20:14:24.452Z,95329.95
2019-02-19T20:16:51.101Z,95330.51
2019-02-19T20:19:17.760Z,95338.58
2019-02-19T20:21:44.416Z,95336.31
2019-02-19T20:24:11.146Z,95336.55
2019-02-19T20:26:37.784Z,95333.77
2019-02-19T20:29:04.449Z,95334.66
2019-02-19T20:31:31.104Z,95335.71
2019-02-19T20:33:57.821Z,95335.97
2019-02-19T20:36:24.466Z,95334.53
2019-02-19T20:38:51.176Z,95336.01
2019-02-19T20:41:17.844Z,95334.75
2019-02-19T20:43:44.495Z,95336.27
2019-02-19T20:46:11.147Z,95331.91
2019-02-19T20:48:37.805Z,95324.84
2019-02-19T20:51:04.460Z,95324.62
2019-02-19T20:53:31.118Z,95331.70
2019-02-19T20:55:57.831Z,95329.17
2019-02-19T20:58:27.406Z,95326.22
2019-02-19T21:00:54.112Z,95323.93
2019-02-19T21:03:20.771Z,95324.11
2019-02-19T21:05:47.425Z,95329.17
2019-02-19T21:08:14.149Z,95323.98
2019-02-19T21:10:40.794Z,95323.94
2019-02-19T21:13:07.440Z,95320.06
2019-02-19T21:15:34.151Z,95319.05
2019-02-19T21:18:00.771Z,95328.92
2019-02-19T21:20:27.486Z,95324.11
2019-02-19T21:22:54.139Z,95319.43
2019-02-19T21:25:20.835Z,95319.27
2019-02-19T21:27:47.494Z,95322.72
2019-02-19T21:30:14.228Z,95319.55
2019-02-19T21:32:40.904Z,95317.16
2019-02-19T21:35:07.566Z,95317.41
2019-02-19T21:37:34.231Z,95321.87
2019-02-19T21:40:00.909Z,95316.98
2019-02-19T21:42:27.602Z,95320.73
2019-02-19T21:44:54.249Z,95325.80
2019-02-19T21:47:20.962Z,95327.62
2019-02-19T21:49:47.613Z,95335.21
2019-02-19T21:52:14.279Z,95331.20
2019-02-19T21:54:40.951Z,95338.41
2019-02-19T21:57:07.611Z,95330.11
2019-02-19T21:59:34.334Z,95336.86
2019-02-19T22:02:00.996Z,95336.13
2019-02-19T22:04:27.712Z,95332.47
2019-02-19T22:06:54.371Z,95336.64
2019-02-19T22:09:21.031Z,95336.18
2019-02-19T22:11:47.693Z,95334.91
2019-02-19T22:14:14.343Z,95336.30
2019-02-19T22:16:41.072Z,95346.59
2019-02-19T22:19:07.778Z,95338.37
2019-02-19T22:21:34.486Z,95338.80
2019-02-19T22:24:01.145Z,95338.80
2019-02-19T22:26:27.794Z,95337.66
2019-02-19T22:28:54.462Z,95338.28
2019-02-19T22:31:21.133Z,95336.09
2019-02-19T22:33:47.780Z,95334.15
2019-02-19T22:36:14.511Z,95343.13
2019-02-19T22:38:41.174Z,95338.08
2019-02-19T22:41:07.883Z,95342.13
2019-02-19T22:43:34.615Z,95338.11
2019-02-19T22:46:01.292Z,95339.13
2019-02-19T22:48:27.917Z,95338.63
2019-02-19T22:50:54.627Z,95339.25
2019-02-19T22:53:21.353Z,95334.02
2019-02-19T22:55:48.127Z,95341.27
2019-02-19T22:58:14.782Z,95336.52
2019-02-19T23:00:41.514Z,95339.84
2019-02-19T23:03:08.119Z,95337.66
2019-02-19T23:05:34.852Z,95342.38
2019-02-19T23:08:01.519Z,95340.05
2019-02-19T23:10:28.183Z,95340.05
2019-02-19T23:12:54.842Z,95335.45
2019-02-19T23:15:21.550Z,95339.80
2019-02-19T23:17:48.209Z,95342.03
2019-02-19T23:20:14.876Z,95339.70
2019-02-19T23:22:41.659Z,95343.41
2019-02-19T23:25:08.364Z,95344.92
2019-02-19T23:27:34.994Z,95344.63
2019-02-19T23:30:01.667Z,95351.05
2019-02-19T23:32:28.331Z,95357.02
2019-02-19T23:34:55.040Z,95356.05
2019-02-19T23:37:21.708Z,95357.69
2019-02-19T23:39:48.368Z,95344.67
2019-02-19T23:42:15.033Z,95348.72
2019-02-19T23:44:41.695Z,95350.52
2019-02-19T23:47:08.368Z,95350.02
2019-02-19T23:49:35.009Z,95356.17
2019-02-19T23:52:01.684Z,95365.66
2019-02-19T23:54:28.410Z,95364.56
2019-02-19T23:56:55.085Z,95360.84
2019-02-19T23:59:21.787Z,95365.98
